createdAt,value
2019-05-30T00:00:50.593Z,72.22
2019-05-30T00:03:23.190Z,72.01
2019-05-30T00:05:56.304Z,72.31
2019-05-30T00:08:29.147Z,72.23
2019-05-30T00:11:03.264Z,72.42
2019-05-30T00:13:35.988Z,72.31
2019-05-30T00:16:08.729Z,74.55
2019-05-30T00:18:41.407Z,75.50
2019-05-30T00:21:14.087Z,75.04
2019-05-30T00:23:46.654Z,74.81
2019-05-30T00:26:19.338Z,75.33
2019-05-30T00:28:53.443Z,75.83
2019-05-30T00:31:26.124Z,77.23
2019-05-30T00:33:59.552Z,76.16
2019-05-30T00:36:32.407Z,76.33
2019-05-30T00:39:06.575Z,75.70
2019-05-30T00:41:39.505Z,75.58
2019-05-30T00:44:12.184Z,74.14
2019-05-30T00:46:44.866Z,73.88
2019-05-30T00:49:17.442Z,75.84
2019-05-30T00:51:50.126Z,74.48
2019-05-30T00:54:22.695Z,77.28
2019-05-30T00:56:56.510Z,78.04
2019-05-30T00:59:29.290Z,77.48
2019-05-30T01:02:02.775Z,79.33
2019-05-30T01:04:36.690Z,79.62
2019-05-30T01:07:08.969Z,80.38
2019-05-30T01:09:41.528Z,81.02
2019-05-30T01:12:14.220Z,82.12
2019-05-30T01:14:46.791Z,82.88
2019-05-30T01:17:19.473Z,83.39
2019-05-30T01:19:52.046Z,83.91
2019-05-30T01:22:24.725Z,83.63
2019-05-30T01:24:57.407Z,84.62
2019-05-30T01:27:30.444Z,84.30
2019-05-30T01:30:03.700Z,84.53
2019-05-30T01:32:36.569Z,85.67
2019-05-30T01:35:10.326Z,85.40
2019-05-30T01:37:42.961Z,85.84
2019-05-30T01:40:15.742Z,86.89
2019-05-30T01:42:49.540Z,86.57
2019-05-30T01:45:21.741Z,86.25
2019-05-30T01:47:54.545Z,85.41
2019-05-30T01:50:27.171Z,84.90
2019-05-30T01:53:00.397Z,84.72
2019-05-30T01:55:33.551Z,84.56
2019-05-30T01:58:07.125Z,84.67
2019-05-30T02:00:42.161Z,85.25
2019-05-30T02:03:14.975Z,84.89
2019-05-30T02:05:47.859Z,85.58
2019-05-30T02:08:21.150Z,85.56
2019-05-30T02:10:53.720Z,85.61
2019-05-30T02:13:26.405Z,85.27
2019-05-30T02:15:59.599Z,86.37
2019-05-30T02:18:32.882Z,87.17
2019-05-30T02:21:06.080Z,87.40
2019-05-30T02:23:38.760Z,86.56
2019-05-30T02:26:11.431Z,86.50
2019-05-30T02:28:44.110Z,88.11
2019-05-30T02:31:37.360Z,88.85
2019-05-30T02:33:51.023Z,88.76
2019-05-30T02:36:25.122Z,88.26
2019-05-30T02:38:58.104Z,88.04
2019-05-30T02:41:30.677Z,88.26
2019-05-30T02:44:05.299Z,87.79
2019-05-30T02:46:37.584Z,87.86
2019-05-30T02:49:11.864Z,88.24
2019-05-30T02:51:44.300Z,88.58
2019-05-30T02:54:16.954Z,88.76
2019-05-30T02:56:49.186Z,88.16
2019-05-30T02:59:21.890Z,88.69
2019-05-30T03:02:01.855Z,88.89
2019-05-30T03:04:29.409Z,88.67
2019-05-30T03:07:03.858Z,88.57
2019-05-30T03:09:36.305Z,88.17
2019-05-30T03:12:11.016Z,88.59
2019-05-30T03:14:43.211Z,88.79
2019-05-30T03:17:17.160Z,87.77
2019-05-30T03:19:49.529Z,88.01
2019-05-30T03:22:22.146Z,88.38
2019-05-30T03:24:54.879Z,88.31
2019-05-30T03:27:27.512Z,88.11
2019-05-30T03:30:00.093Z,88.09
2019-05-30T03:33:05.315Z,87.63
2019-05-30T03:35:18.614Z,87.22
2019-05-30T03:37:43.869Z,86.24
2019-05-30T03:40:18.504Z,85.25
2019-05-30T03:42:51.573Z,85.87
2019-05-30T03:45:28.194Z,86.42
2019-05-30T03:48:07.406Z,86.05
2019-05-30T03:50:44.966Z,86.20
2019-05-30T03:53:17.765Z,86.03
2019-05-30T03:55:54.152Z,86.46
2019-05-30T03:58:50.861Z,86.25
2019-05-30T04:01:36.757Z,85.75
2019-05-30T04:04:19.775Z,85.06
2019-05-30T04:06:57.139Z,82.60
2019-05-30T04:09:32.086Z,82.44
2019-05-30T04:12:10.600Z,81.59
2019-05-30T04:14:46.972Z,81.71
2019-05-30T04:17:20.012Z,80.51
2019-05-30T04:19:53.048Z,78.61
2019-05-30T04:22:25.725Z,77.70
2019-05-30T04:24:57.945Z,76.24
2019-05-30T04:27:30.571Z,75.94
2019-05-30T04:30:03.159Z,76.25
2019-05-30T04:32:35.833Z,74.50
2019-05-30T04:35:10.144Z,75.10
2019-05-30T04:37:42.822Z,73.70
2019-05-30T04:40:17.433Z,72.20
2019-05-30T04:42:50.127Z,72.13
2019-05-30T04:45:27.557Z,71.92
2019-05-30T04:47:57.950Z,71.85
2019-05-30T04:50:30.619Z,73.59
2019-05-30T04:53:03.309Z,71.26
2019-05-30T04:55:35.993Z,69.60
2019-05-30T04:58:08.710Z,70.79
2019-05-30T05:00:41.346Z,69.97
2019-05-30T05:03:15.494Z,70.26
2019-05-30T05:05:48.344Z,70.35
2019-05-30T05:08:21.969Z,68.89
2019-05-30T05:10:54.513Z,67.80
2019-05-30T05:13:27.498Z,67.17
2019-05-30T05:16:00.075Z,67.38
2019-05-30T05:18:52.872Z,67.84
2019-05-30T05:21:25.518Z,67.40
2019-05-30T05:23:58.202Z,67.72
2019-05-30T05:26:30.885Z,67.11
2019-05-30T05:29:03.479Z,68.03
2019-05-30T05:31:37.157Z,67.54
2019-05-30T05:34:09.742Z,65.10
2019-05-30T05:36:42.423Z,66.47
2019-05-30T05:39:16.148Z,66.12
2019-05-30T05:41:48.898Z,66.27
2019-05-30T05:44:22.365Z,65.48
2019-05-30T05:46:55.287Z,63.67
2019-05-30T05:49:28.872Z,63.22
2019-05-30T05:52:01.870Z,62.33
2019-05-30T05:54:34.553Z,60.19
2019-05-30T05:57:07.233Z,60.38
2019-05-30T05:59:39.802Z,61.17
2019-05-30T06:02:12.669Z,62.66
2019-05-30T06:04:45.465Z,61.39
2019-05-30T06:07:18.248Z,61.01
2019-05-30T06:09:50.938Z,57.25
2019-05-30T06:12:23.864Z,55.87
2019-05-30T06:14:56.336Z,54.95
2019-05-30T06:17:29.311Z,53.65
2019-05-30T06:20:02.266Z,53.19
2019-05-30T06:22:35.450Z,56.11
2019-05-30T06:25:09.096Z,56.71
2019-05-30T06:27:42.049Z,55.25
2019-05-30T06:30:16.362Z,58.24
2019-05-30T06:32:49.341Z,56.81
2019-05-30T06:35:23.019Z,53.85
2019-05-30T06:37:55.937Z,54.12
2019-05-30T06:40:30.878Z,54.29
2019-05-30T06:43:03.037Z,52.26
2019-05-30T06:45:35.712Z,54.94
2019-05-30T06:48:08.381Z,52.21
2019-05-30T06:50:40.972Z,51.51
2019-05-30T06:53:14.665Z,46.61
2019-05-30T06:55:47.352Z,47.24
2019-05-30T06:58:35.318Z,45.75
2019-05-30T07:00:54.239Z,45.33
2019-05-30T07:03:28.341Z,46.60
2019-05-30T07:06:01.506Z,36.58
2019-05-30T07:08:34.845Z,35.75
2019-05-30T07:11:07.523Z,34.92
2019-05-30T07:13:40.204Z,36.93
2019-05-30T07:16:12.882Z,35.00
2019-05-30T07:18:45.559Z,36.18
2019-05-30T07:21:18.243Z,36.77
2019-05-30T07:23:50.924Z,39.39
2019-05-30T07:26:23.908Z,37.62
2019-05-30T07:28:56.709Z,37.96
2019-05-30T07:31:30.206Z,36.76
2019-05-30T07:34:03.161Z,34.71
2019-05-30T07:36:35.736Z,36.76
2019-05-30T07:39:11.286Z,37.16
2019-05-30T07:41:43.972Z,37.41
2019-05-30T07:44:16.651Z,34.75
2019-05-30T07:46:48.866Z,37.62
2019-05-30T07:49:21.594Z,34.90
2019-05-30T07:51:53.832Z,36.59
2019-05-30T07:54:26.860Z,37.52
2019-05-30T07:56:59.526Z,35.86
2019-05-30T07:59:34.292Z,36.47
2019-05-30T08:02:07.566Z,35.37
2019-05-30T08:04:41.130Z,33.92
2019-05-30T08:07:13.734Z,35.00
2019-05-30T08:09:45.986Z,32.57
2019-05-30T08:12:18.418Z,32.68
2019-05-30T08:14:51.054Z,31.80
2019-05-30T08:17:23.621Z,33.96
2019-05-30T08:19:55.868Z,35.00
2019-05-30T08:22:29.848Z,36.72
2019-05-30T08:25:02.898Z,36.02
2019-05-30T08:27:36.445Z,34.40
2019-05-30T08:30:13.682Z,36.96
2019-05-30T08:32:47.888Z,31.93
2019-05-30T08:35:20.567Z,32.50
2019-05-30T08:37:53.155Z,31.54
2019-05-30T08:40:25.832Z,32.72
2019-05-30T08:42:59.221Z,33.52
2019-05-30T08:45:31.899Z,33.54
2019-05-30T08:48:04.883Z,32.59
2019-05-30T08:50:41.290Z,33.35
2019-05-30T08:53:11.886Z,34.36
2019-05-30T08:55:45.185Z,33.97
2019-05-30T08:58:17.749Z,33.09
2019-05-30T09:00:50.836Z,32.89
2019-05-30T09:03:24.761Z,32.88
2019-05-30T09:06:03.818Z,34.04
2019-05-30T09:08:31.846Z,32.74
2019-05-30T09:11:04.677Z,31.19
2019-05-30T09:13:38.859Z,32.39
2019-05-30T09:16:11.936Z,34.07
2019-05-30T09:18:45.269Z,32.70
2019-05-30T09:21:18.072Z,32.01
2019-05-30T09:23:50.992Z,34.85
2019-05-30T09:26:23.684Z,32.89
2019-05-30T09:28:56.776Z,32.47
2019-05-30T09:31:29.511Z,33.06
2019-05-30T09:34:02.132Z,34.42
2019-05-30T09:36:34.816Z,32.26
2019-05-30T09:39:09.706Z,31.62
2019-05-30T09:41:43.736Z,31.72
2019-05-30T09:44:16.529Z,30.40
2019-05-30T09:46:50.416Z,32.50
2019-05-30T09:49:23.025Z,33.20
2019-05-30T09:51:55.698Z,30.42
2019-05-30T09:54:27.914Z,30.98
2019-05-30T09:57:00.645Z,29.78
2019-05-30T09:59:33.213Z,30.96
2019-05-30T10:02:06.009Z,31.19
2019-05-30T10:04:38.788Z,30.58
2019-05-30T10:07:11.468Z,31.28
2019-05-30T10:09:45.622Z,29.75
2019-05-30T10:12:18.770Z,30.32
2019-05-30T10:14:52.836Z,31.37
2019-05-30T10:17:25.785Z,29.90
2019-05-30T10:19:58.433Z,29.43
2019-05-30T10:22:31.023Z,31.93
2019-05-30T10:25:03.702Z,33.59
2019-05-30T10:27:36.439Z,29.60
2019-05-30T10:30:12.109Z,29.58
2019-05-30T10:32:45.413Z,32.73
2019-05-30T10:35:19.440Z,30.74
2019-05-30T10:37:52.842Z,31.29
2019-05-30T10:40:25.708Z,31.42
2019-05-30T10:42:59.206Z,32.17
2019-05-30T10:45:32.029Z,32.19
2019-05-30T10:48:04.687Z,30.93
2019-05-30T10:50:37.653Z,32.43
2019-05-30T10:53:10.335Z,29.80
2019-05-30T10:55:42.954Z,30.43
2019-05-30T10:58:15.585Z,29.35
2019-05-30T11:00:53.421Z,28.51
2019-05-30T11:03:28.944Z,29.30
2019-05-30T11:06:17.983Z,30.02
2019-05-30T11:08:52.854Z,28.86
2019-05-30T11:11:25.924Z,28.44
2019-05-30T11:13:58.798Z,28.43
2019-05-30T11:16:32.497Z,28.82
2019-05-30T11:21:39.086Z,28.63
2019-05-30T11:24:13.127Z,28.74
2019-05-30T11:26:45.787Z,28.90
2019-05-30T11:29:18.481Z,28.56
2019-05-30T11:31:53.389Z,27.89
2019-05-30T11:34:26.179Z,29.19
2019-05-30T11:36:59.331Z,28.92
2019-05-30T11:39:33.077Z,28.87
2019-05-30T11:42:05.863Z,29.48
2019-05-30T11:44:38.535Z,27.73
2019-05-30T11:47:11.201Z,28.51
2019-05-30T11:49:46.845Z,27.46
2019-05-30T11:52:19.529Z,29.49
2019-05-30T11:54:52.093Z,30.20
2019-05-30T11:57:24.903Z,30.34
2019-05-30T11:59:58.336Z,28.80
2019-05-30T12:02:31.486Z,30.00
2019-05-30T12:05:04.371Z,31.33
2019-05-30T12:07:37.179Z,29.55
2019-05-30T12:10:10.842Z,30.18
2019-05-30T12:12:43.535Z,28.73
2019-05-30T12:15:16.106Z,29.57
2019-05-30T12:17:48.996Z,31.46
2019-05-30T12:20:21.230Z,28.60
2019-05-30T12:22:53.807Z,28.96
2019-05-30T12:25:26.215Z,29.08
2019-05-30T12:28:00.082Z,28.25
2019-05-30T12:30:32.903Z,27.44
2019-05-30T12:33:05.620Z,28.09
2019-05-30T12:35:38.254Z,27.01
2019-05-30T12:38:10.946Z,28.58
2019-05-30T12:40:43.621Z,28.09
2019-05-30T12:43:16.300Z,28.58
2019-05-30T12:45:49.698Z,28.62
2019-05-30T12:48:22.366Z,30.26
2019-05-30T12:50:55.251Z,28.60
2019-05-30T12:53:28.144Z,27.62
2019-05-30T12:56:00.821Z,27.35
2019-05-30T12:58:33.072Z,26.12
2019-05-30T13:01:06.847Z,26.74
2019-05-30T13:03:39.975Z,27.08
2019-05-30T13:06:12.207Z,26.58
2019-05-30T13:08:45.142Z,28.41
2019-05-30T13:11:17.833Z,28.99
2019-05-30T13:13:50.486Z,28.68
2019-05-30T13:16:23.064Z,28.78
2019-05-30T13:18:55.950Z,26.28
2019-05-30T13:21:28.845Z,25.86
2019-05-30T13:24:02.116Z,27.31
2019-05-30T13:26:34.918Z,29.76
2019-05-30T13:29:07.837Z,29.76
2019-05-30T13:31:40.473Z,29.96
2019-05-30T13:34:13.160Z,29.53
2019-05-30T13:36:45.850Z,28.66
2019-05-30T13:39:18.620Z,28.71
2019-05-30T13:41:51.404Z,29.19
2019-05-30T13:44:24.172Z,26.83
2019-05-30T13:46:56.908Z,26.48
2019-05-30T13:49:30.874Z,26.98
2019-05-30T13:52:05.023Z,24.58
2019-05-30T13:54:37.978Z,24.17
2019-05-30T13:57:10.653Z,25.12
2019-05-30T13:59:43.331Z,26.00
2019-05-30T14:02:15.908Z,24.53
2019-05-30T14:04:48.583Z,25.23
2019-05-30T14:07:21.175Z,24.43
2019-05-30T14:09:53.843Z,24.43
2019-05-30T14:12:27.742Z,22.11
2019-05-30T14:15:01.139Z,22.49
2019-05-30T14:17:35.969Z,24.13
2019-05-30T14:20:11.259Z,23.94
2019-05-30T14:22:44.407Z,24.43
2019-05-30T14:25:17.711Z,24.43
2019-05-30T14:27:51.721Z,24.70
2019-05-30T14:30:25.617Z,23.92
2019-05-30T14:32:58.295Z,24.91
2019-05-30T14:35:31.274Z,23.72
2019-05-30T14:38:04.690Z,23.08
2019-05-30T14:40:37.771Z,23.44
2019-05-30T14:43:11.414Z,23.44
2019-05-30T14:45:44.360Z,24.39
2019-05-30T14:48:16.978Z,25.12
2019-05-30T14:50:49.725Z,23.44
2019-05-30T14:53:21.946Z,23.21
2019-05-30T14:55:54.399Z,22.85
2019-05-30T14:58:27.037Z,21.07
2019-05-30T15:00:59.301Z,22.11
2019-05-30T15:03:32.499Z,23.91
2019-05-30T15:06:06.879Z,24.28
2019-05-30T15:08:39.496Z,22.17
2019-05-30T15:11:12.166Z,21.96
2019-05-30T15:13:44.743Z,21.96
2019-05-30T15:16:17.225Z,20.88
2019-05-30T15:18:50.315Z,20.83
2019-05-30T15:21:22.996Z,20.44
2019-05-30T15:23:55.672Z,21.32
2019-05-30T15:26:28.342Z,19.64
2019-05-30T15:29:00.933Z,20.64
2019-05-30T15:31:33.598Z,20.91
2019-05-30T15:34:06.595Z,21.26
2019-05-30T15:36:39.267Z,20.33
2019-05-30T15:39:11.497Z,19.78
2019-05-30T15:41:44.115Z,20.33
2019-05-30T15:44:17.731Z,19.66
2019-05-30T15:46:50.267Z,19.62
2019-05-30T15:49:22.876Z,21.25
2019-05-30T15:51:55.543Z,22.15
2019-05-30T15:54:27.771Z,21.70
2019-05-30T15:57:00.404Z,21.86
2019-05-30T15:59:33.084Z,22.20
2019-05-30T16:02:05.765Z,21.98
2019-05-30T16:04:38.430Z,20.79
2019-05-30T16:07:11.105Z,20.39
2019-05-30T16:09:46.998Z,20.28
2019-05-30T16:12:19.382Z,19.07
2019-05-30T16:14:52.440Z,20.44
2019-05-30T16:17:25.318Z,21.40
2019-05-30T16:19:57.900Z,22.35
2019-05-30T16:22:30.630Z,22.81
2019-05-30T16:25:03.295Z,23.38
2019-05-30T16:27:37.160Z,23.50
2019-05-30T16:30:12.077Z,21.77
2019-05-30T16:32:45.126Z,21.46
2019-05-30T16:35:18.277Z,19.86
2019-05-30T16:37:51.041Z,19.94
2019-05-30T16:40:23.257Z,19.71
2019-05-30T16:42:55.897Z,20.88
2019-05-30T16:45:28.564Z,20.72
2019-05-30T16:48:01.250Z,21.30
2019-05-30T16:50:33.836Z,20.75
2019-05-30T16:53:06.628Z,21.08
2019-05-30T16:55:39.282Z,21.15
2019-05-30T16:58:12.065Z,21.59
2019-05-30T17:00:44.340Z,21.74
2019-05-30T17:03:17.772Z,23.19
2019-05-30T17:05:52.396Z,23.19
2019-05-30T17:08:24.943Z,21.44
2019-05-30T17:10:58.024Z,21.35
2019-05-30T17:13:31.388Z,21.35
2019-05-30T17:16:04.197Z,21.90
2019-05-30T17:18:36.981Z,23.64
2019-05-30T17:21:09.671Z,23.64
2019-05-30T17:23:42.351Z,23.27
2019-05-30T17:26:15.033Z,22.88
2019-05-30T17:28:47.924Z,22.91
2019-05-30T17:31:21.622Z,24.31
2019-05-30T17:33:54.502Z,27.20
2019-05-30T17:36:28.169Z,28.70
2019-05-30T17:39:00.639Z,29.68
2019-05-30T17:41:34.789Z,29.06
2019-05-30T17:44:07.461Z,30.10
2019-05-30T17:46:40.247Z,31.50
2019-05-30T17:49:12.921Z,32.27
2019-05-30T17:51:45.509Z,32.34
2019-05-30T17:54:17.772Z,32.45
2019-05-30T17:56:50.444Z,32.84
2019-05-30T17:59:22.710Z,32.83
2019-05-30T18:01:55.301Z,33.73
2019-05-30T18:04:28.609Z,34.15
2019-05-30T18:07:01.469Z,35.85
2019-05-30T18:09:34.159Z,36.66
2019-05-30T18:12:07.033Z,36.68
2019-05-30T18:14:39.709Z,37.50
2019-05-30T18:17:12.289Z,37.67
2019-05-30T18:19:44.983Z,38.55
2019-05-30T18:22:17.192Z,39.07
2019-05-30T18:24:49.821Z,39.56
2019-05-30T18:27:23.811Z,41.39
2019-05-30T18:29:56.161Z,40.83
2019-05-30T18:32:28.783Z,41.14
2019-05-30T18:35:01.564Z,41.97
2019-05-30T18:37:34.556Z,42.75
2019-05-30T18:40:09.382Z,44.12
2019-05-30T18:42:42.571Z,43.54
2019-05-30T18:45:18.732Z,43.48
2019-05-30T18:47:51.617Z,44.12
2019-05-30T18:50:25.188Z,47.02
2019-05-30T18:52:58.000Z,47.94
2019-05-30T18:55:30.753Z,49.83
2019-05-30T18:58:03.350Z,49.06
2019-05-30T19:00:36.025Z,53.49
2019-05-30T19:03:08.548Z,54.73
2019-05-30T19:05:41.190Z,55.05
2019-05-30T19:08:13.756Z,55.25
2019-05-30T19:10:46.433Z,55.16
2019-05-30T19:13:19.015Z,56.76
2019-05-30T19:15:51.481Z,57.64
2019-05-30T19:18:25.270Z,58.22
2019-05-30T19:20:58.190Z,59.09
2019-05-30T19:23:32.042Z,61.25
2019-05-30T19:26:04.575Z,61.86
2019-05-30T19:28:37.238Z,61.81
2019-05-30T19:31:09.921Z,61.60
2019-05-30T19:33:42.613Z,63.88
2019-05-30T19:36:15.281Z,64.35
2019-05-30T19:38:47.959Z,62.62
2019-05-30T19:41:21.979Z,62.80
2019-05-30T19:43:54.647Z,62.00
2019-05-30T19:46:28.074Z,63.06
2019-05-30T19:49:00.722Z,61.29
2019-05-30T19:51:33.403Z,61.67
2019-05-30T19:54:06.083Z,63.40
2019-05-30T19:56:41.661Z,62.75
2019-05-30T19:59:13.292Z,63.07
2019-05-30T20:01:45.967Z,62.39
2019-05-30T20:04:18.744Z,62.51
2019-05-30T20:06:51.425Z,62.08
2019-05-30T20:09:24.214Z,63.29
2019-05-30T20:12:03.231Z,61.60
2019-05-30T20:14:31.105Z,62.03
2019-05-30T20:17:03.790Z,62.55
2019-05-30T20:19:37.689Z,62.33
2019-05-30T20:22:10.473Z,64.95
2019-05-30T20:24:43.042Z,64.40
2019-05-30T20:27:15.423Z,64.58
2019-05-30T20:29:47.998Z,64.30
2019-05-30T20:32:20.783Z,64.60
2019-05-30T20:34:53.463Z,64.25
2019-05-30T20:37:26.141Z,65.13
2019-05-30T20:39:59.945Z,64.57
2019-05-30T20:42:32.616Z,63.95
2019-05-30T20:45:09.874Z,64.09
2019-05-30T20:47:43.089Z,63.74
2019-05-30T20:50:17.311Z,63.77
2019-05-30T20:52:50.202Z,63.99
2019-05-30T20:55:23.073Z,63.99
2019-05-30T20:57:55.756Z,64.42
2019-05-30T21:00:42.240Z,64.62
2019-05-30T21:03:15.153Z,65.22
2019-05-30T21:05:49.362Z,66.95
2019-05-30T21:08:23.276Z,67.31
2019-05-30T21:10:58.683Z,66.11
2019-05-30T21:13:36.223Z,67.09
2019-05-30T21:16:09.812Z,67.39
2019-05-30T21:18:46.190Z,67.74
2019-05-30T21:21:19.987Z,70.52
2019-05-30T21:23:52.661Z,71.54
2019-05-30T21:26:25.345Z,71.61
2019-05-30T21:28:58.948Z,72.22
2019-05-30T21:31:31.162Z,70.21
2019-05-30T21:34:04.155Z,68.88
2019-05-30T21:36:37.690Z,68.49
2019-05-30T21:39:11.493Z,68.74
2019-05-30T21:41:44.554Z,68.84
2019-05-30T21:44:17.373Z,67.96
2019-05-30T21:46:49.941Z,67.33
2019-05-30T21:49:22.622Z,67.87
2019-05-30T21:51:55.502Z,67.69
2019-05-30T21:54:28.187Z,67.71
2019-05-30T21:57:01.781Z,67.59
2019-05-30T21:59:34.472Z,66.93
2019-05-30T22:02:07.970Z,65.93
2019-05-30T22:04:40.498Z,65.60
2019-05-30T22:07:13.730Z,65.39
2019-05-30T22:09:45.978Z,65.58
2019-05-30T22:12:18.573Z,65.59
2019-05-30T22:14:52.393Z,65.72
2019-05-30T22:17:24.850Z,64.81
2019-05-30T22:19:57.544Z,65.88
2019-05-30T22:22:31.350Z,65.12
2019-05-30T22:25:04.130Z,65.35
2019-05-30T22:27:36.706Z,65.25
2019-05-30T22:30:09.680Z,65.45
2019-05-30T22:32:42.585Z,65.12
2019-05-30T22:35:15.552Z,64.91
2019-05-30T22:37:48.892Z,64.84
2019-05-30T22:40:21.843Z,65.19
2019-05-30T22:42:54.718Z,65.24
2019-05-30T22:45:27.707Z,65.18
2019-05-30T22:48:00.585Z,65.23
2019-05-30T22:50:33.382Z,65.57
2019-05-30T22:53:06.353Z,65.58
2019-05-30T22:55:39.357Z,66.38
2019-05-30T22:58:12.030Z,66.79
2019-05-30T23:00:45.947Z,67.15
2019-05-30T23:03:18.739Z,68.53
2019-05-30T23:05:51.636Z,69.38
2019-05-30T23:08:24.583Z,67.71
2019-05-30T23:10:57.567Z,68.07
2019-05-30T23:13:40.209Z,68.37
2019-05-30T23:16:05.129Z,68.82
2019-05-30T23:18:38.072Z,68.72
2019-05-30T23:21:11.059Z,68.92
2019-05-30T23:23:43.820Z,69.35
2019-05-30T23:26:16.732Z,69.62
2019-05-30T23:28:49.708Z,70.07
2019-05-30T23:31:22.687Z,70.12
2019-05-30T23:33:56.470Z,69.91
2019-05-30T23:36:28.954Z,69.94
2019-05-30T23:39:01.574Z,70.40
2019-05-30T23:41:35.871Z,70.97
2019-05-30T23:44:11.667Z,70.46
2019-05-30T23:46:42.349Z,70.47
2019-05-30T23:49:15.028Z,70.94
2019-05-30T23:51:47.706Z,71.52
2019-05-30T23:54:20.392Z,71.97
2019-05-30T23:56:54.596Z,72.42
2019-05-30T23:59:27.482Z,72.39
